sensor_id;sensor_type;location;lat;lon;timestamp;temperature;humidity
2621;DHT22;1320;48.128;11.592;2023-12-29T00:01:14;11.60;99.90
2621;DHT22;1320;48.128;11.592;2023-12-29T00:03:39;11.70;99.90
2621;DHT22;1320;48.128;11.592;2023-12-29T00:06:05;11.60;99.90
2621;DHT22;1320;48.128;11.592;2023-12-29T00:08:31;11.50;99.90
2621;DHT22;1320;48.128;11.592;2023-12-29T00:10:57;11.50;99.90
2621;DHT22;1320;48.128;11.592;2023-12-29T00:13:23;11.50;99.90
2621;DHT22;1320;48.128;11.592;2023-12-29T00:15:53;11.50;99.90
2621;DHT22;1320;48.128;11.592;2023-12-29T00:18:19;11.40;99.90
2621;DHT22;1320;48.128;11.592;2023-12-29T00:20:45;11.50;99.90
2621;DHT22;1320;48.128;11.592;2023-12-29T00:23:11;11.40;99.90
2621;DHT22;1320;48.128;11.592;2023-12-29T00:25:37;11.50;99.90
2621;DHT22;1320;48.128;11.592;2023-12-29T00:28:04;11.50;99.90
2621;DHT22;1320;48.128;11.592;2023-12-29T00:30:29;11.40;99.90
2621;DHT22;1320;48.128;11.592;2023-12-29T00:32:55;11.40;99.90
2621;DHT22;1320;48.128;11.592;2023-12-29T00:35:21;11.30;99.90
2621;DHT22;1320;48.128;11.592;2023-12-29T00:37:47;11.30;99.90
2621;DHT22;1320;48.128;11.592;2023-12-29T00:40:12;11.20;99.90
2621;DHT22;1320;48.128;11.592;2023-12-29T00:42:38;11.20;99.90
2621;DHT22;1320;48.128;11.592;2023-12-29T00:45:04;11.20;99.90
2621;DHT22;1320;48.128;11.592;2023-12-29T00:47:30;11.20;99.90
2621;DHT22;1320;48.128;11.592;2023-12-29T00:49:56;11.20;99.90
2621;DHT22;1320;48.128;11.592;2023-12-29T00:52:22;11.10;99.90
2621;DHT22;1320;48.128;11.592;2023-12-29T00:54:47;11.10;99.90
2621;DHT22;1320;48.128;11.592;2023-12-29T00:57:13;11.00;99.90
2621;DHT22;1320;48.128;11.592;2023-12-29T00:59:39;11.00;99.90
2621;DHT22;1320;48.128;11.592;2023-12-29T01:02:05;10.90;99.90
2621;DHT22;1320;48.128;11.592;2023-12-29T01:04:31;10.80;99.90
2621;DHT22;1320;48.128;11.592;2023-12-29T01:06:56;10.80;99.90
2621;DHT22;1320;48.128;11.592;2023-12-29T01:09:22;10.70;99.90
2621;DHT22;1320;48.128;11.592;2023-12-29T01:11:48;10.70;99.90
2621;DHT22;1320;48.128;11.592;2023-12-29T01:14:13;10.60;99.90
2621;DHT22;1320;48.128;11.592;2023-12-29T01:16:40;10.60;99.90
2621;DHT22;1320;48.128;11.592;2023-12-29T01:19:07;10.50;99.90
2621;DHT22;1320;48.128;11.592;2023-12-29T01:21:32;10.60;99.90
2621;DHT22;1320;48.128;11.592;2023-12-29T01:24:00;10.60;99.90
2621;DHT22;1320;48.128;11.592;2023-12-29T01:26:26;10.60;99.90
2621;DHT22;1320;48.128;11.592;2023-12-29T01:28:52;10.60;99.90
2621;DHT22;1320;48.128;11.592;2023-12-29T01:31:18;10.60;99.90
2621;DHT22;1320;48.128;11.592;2023-12-29T01:33:43;10.50;99.90
2621;DHT22;1320;48.128;11.592;2023-12-29T01:36:18;10.50;99.90
2621;DHT22;1320;48.128;11.592;2023-12-29T01:38:44;10.40;99.90
2621;DHT22;1320;48.128;11.592;2023-12-29T01:41:10;10.40;99.90
2621;DHT22;1320;48.128;11.592;2023-12-29T01:43:35;10.30;99.90
2621;DHT22;1320;48.128;11.592;2023-12-29T01:46:01;10.30;99.90
2621;DHT22;1320;48.128;11.592;2023-12-29T01:48:27;10.20;99.90
2621;DHT22;1320;48.128;11.592;2023-12-29T01:50:53;10.20;99.90
2621;DHT22;1320;48.128;11.592;2023-12-29T01:53:20;10.10;99.90
2621;DHT22;1320;48.128;11.592;2023-12-29T01:55:46;10.10;99.90
2621;DHT22;1320;48.128;11.592;2023-12-29T01:58:13;10.00;99.90
2621;DHT22;1320;48.128;11.592;2023-12-29T02:00:39;10.00;99.90
2621;DHT22;1320;48.128;11.592;2023-12-29T02:03:05;9.90;99.90
2621;DHT22;1320;48.128;11.592;2023-12-29T02:05:33;9.90;99.90
2621;DHT22;1320;48.128;11.592;2023-12-29T02:08:00;9.90;99.90
2621;DHT22;1320;48.128;11.592;2023-12-29T02:10:27;9.90;99.90
2621;DHT22;1320;48.128;11.592;2023-12-29T02:12:53;9.90;99.90
2621;DHT22;1320;48.128;11.592;2023-12-29T02:15:23;9.80;99.90
2621;DHT22;1320;48.128;11.592;2023-12-29T02:17:56;9.80;99.90
2621;DHT22;1320;48.128;11.592;2023-12-29T02:20:25;9.80;99.90
2621;DHT22;1320;48.128;11.592;2023-12-29T02:22:51;9.80;99.90
2621;DHT22;1320;48.128;11.592;2023-12-29T02:25:17;9.90;99.90
2621;DHT22;1320;48.128;11.592;2023-12-29T02:27:52;9.90;99.90
2621;DHT22;1320;48.128;11.592;2023-12-29T02:30:24;9.90;99.90
2621;DHT22;1320;48.128;11.592;2023-12-29T02:32:55;9.90;99.90
2621;DHT22;1320;48.128;11.592;2023-12-29T02:35:25;9.90;99.90
2621;DHT22;1320;48.128;11.592;2023-12-29T02:37:53;10.00;99.90
2621;DHT22;1320;48.128;11.592;2023-12-29T02:40:19;9.90;99.90
2621;DHT22;1320;48.128;11.592;2023-12-29T02:42:48;9.90;99.90
2621;DHT22;1320;48.128;11.592;2023-12-29T02:45:18;9.90;99.90
2621;DHT22;1320;48.128;11.592;2023-12-29T02:47:44;9.90;99.90
2621;DHT22;1320;48.128;11.592;2023-12-29T02:50:10;9.90;99.90
2621;DHT22;1320;48.128;11.592;2023-12-29T02:52:36;9.80;99.90
2621;DHT22;1320;48.128;11.592;2023-12-29T02:55:02;9.80;99.90
2621;DHT22;1320;48.128;11.592;2023-12-29T02:57:28;9.80;99.90
2621;DHT22;1320;48.128;11.592;2023-12-29T02:59:55;9.80;99.90
2621;DHT22;1320;48.128;11.592;2023-12-29T03:02:22;9.80;99.90
2621;DHT22;1320;48.128;11.592;2023-12-29T03:04:47;9.80;99.90
2621;DHT22;1320;48.128;11.592;2023-12-29T03:07:13;9.80;99.90
2621;DHT22;1320;48.128;11.592;2023-12-29T03:09:39;9.80;99.90
2621;DHT22;1320;48.128;11.592;2023-12-29T03:12:05;9.80;99.90
2621;DHT22;1320;48.128;11.592;2023-12-29T03:14:31;9.90;99.90
2621;DHT22;1320;48.128;11.592;2023-12-29T03:16:56;9.90;99.90
2621;DHT22;1320;48.128;11.592;2023-12-29T03:19:22;9.90;99.80
2621;DHT22;1320;48.128;11.592;2023-12-29T03:21:48;9.90;99.70
2621;DHT22;1320;48.128;11.592;2023-12-29T03:24:14;10.00;99.20
2621;DHT22;1320;48.128;11.592;2023-12-29T03:26:40;10.00;99.20
2621;DHT22;1320;48.128;11.592;2023-12-29T03:29:06;10.00;99.00
2621;DHT22;1320;48.128;11.592;2023-12-29T03:31:32;10.10;98.90
2621;DHT22;1320;48.128;11.592;2023-12-29T03:33:58;10.10;98.80
2621;DHT22;1320;48.128;11.592;2023-12-29T03:36:23;10.20;98.70
2621;DHT22;1320;48.128;11.592;2023-12-29T03:38:49;10.20;98.60
2621;DHT22;1320;48.128;11.592;2023-12-29T03:41:14;10.20;98.60
2621;DHT22;1320;48.128;11.592;2023-12-29T03:43:40;10.20;98.50
2621;DHT22;1320;48.128;11.592;2023-12-29T03:48:42;10.30;98.10
2621;DHT22;1320;48.128;11.592;2023-12-29T03:51:08;10.30;98.10
2621;DHT22;1320;48.128;11.592;2023-12-29T03:53:33;10.30;98.00
2621;DHT22;1320;48.128;11.592;2023-12-29T03:55:59;10.30;98.00
2621;DHT22;1320;48.128;11.592;2023-12-29T03:58:25;10.30;97.70
2621;DHT22;1320;48.128;11.592;2023-12-29T04:00:50;10.30;97.30
2621;DHT22;1320;48.128;11.592;2023-12-29T04:03:16;10.30;97.20
2621;DHT22;1320;48.128;11.592;2023-12-29T04:05:41;10.30;96.90
2621;DHT22;1320;48.128;11.592;2023-12-29T04:08:07;10.40;96.80
2621;DHT22;1320;48.128;11.592;2023-12-29T04:10:33;10.40;96.70
2621;DHT22;1320;48.128;11.592;2023-12-29T04:12:58;10.50;96.70
2621;DHT22;1320;48.128;11.592;2023-12-29T04:15:24;10.60;96.40
2621;DHT22;1320;48.128;11.592;2023-12-29T04:17:49;10.60;96.20
2621;DHT22;1320;48.128;11.592;2023-12-29T04:20:15;10.70;96.20
2621;DHT22;1320;48.128;11.592;2023-12-29T04:22:41;10.70;96.20
2621;DHT22;1320;48.128;11.592;2023-12-29T04:25:07;10.80;95.90
2621;DHT22;1320;48.128;11.592;2023-12-29T04:27:32;10.90;95.80
2621;DHT22;1320;48.128;11.592;2023-12-29T04:29:58;11.00;95.50
2621;DHT22;1320;48.128;11.592;2023-12-29T04:32:24;11.00;95.50
2621;DHT22;1320;48.128;11.592;2023-12-29T04:34:49;11.00;95.60
2621;DHT22;1320;48.128;11.592;2023-12-29T04:37:15;11.10;95.50
2621;DHT22;1320;48.128;11.592;2023-12-29T04:39:41;11.10;95.50
2621;DHT22;1320;48.128;11.592;2023-12-29T04:42:06;11.10;95.40
2621;DHT22;1320;48.128;11.592;2023-12-29T04:44:32;11.20;95.40
2621;DHT22;1320;48.128;11.592;2023-12-29T04:46:58;11.20;95.30
2621;DHT22;1320;48.128;11.592;2023-12-29T04:49:24;11.30;95.10
2621;DHT22;1320;48.128;11.592;2023-12-29T04:51:49;11.30;95.10
2621;DHT22;1320;48.128;11.592;2023-12-29T04:54:15;11.30;95.10
2621;DHT22;1320;48.128;11.592;2023-12-29T04:56:41;11.30;95.10
2621;DHT22;1320;48.128;11.592;2023-12-29T04:59:06;11.30;95.10
2621;DHT22;1320;48.128;11.592;2023-12-29T05:01:32;11.30;95.20
2621;DHT22;1320;48.128;11.592;2023-12-29T05:03:57;11.30;95.20
2621;DHT22;1320;48.128;11.592;2023-12-29T05:06:23;11.30;95.40
2621;DHT22;1320;48.128;11.592;2023-12-29T05:08:49;11.40;95.40
2621;DHT22;1320;48.128;11.592;2023-12-29T05:11:14;11.40;95.50
2621;DHT22;1320;48.128;11.592;2023-12-29T05:13:40;11.50;95.50
2621;DHT22;1320;48.128;11.592;2023-12-29T05:16:06;11.50;95.60
2621;DHT22;1320;48.128;11.592;2023-12-29T05:18:31;11.50;95.60
2621;DHT22;1320;48.128;11.592;2023-12-29T05:20:57;11.60;95.70
2621;DHT22;1320;48.128;11.592;2023-12-29T05:23:23;11.60;95.70
2621;DHT22;1320;48.128;11.592;2023-12-29T05:25:49;11.60;95.80
2621;DHT22;1320;48.128;11.592;2023-12-29T05:28:14;11.50;95.90
2621;DHT22;1320;48.128;11.592;2023-12-29T05:30:40;11.60;96.40
2621;DHT22;1320;48.128;11.592;2023-12-29T05:33:05;11.60;96.00
2621;DHT22;1320;48.128;11.592;2023-12-29T05:35:31;11.60;96.10
2621;DHT22;1320;48.128;11.592;2023-12-29T05:37:57;11.60;96.10
2621;DHT22;1320;48.128;11.592;2023-12-29T05:40:23;11.70;96.10
2621;DHT22;1320;48.128;11.592;2023-12-29T05:42:49;11.70;96.10
2621;DHT22;1320;48.128;11.592;2023-12-29T05:45:18;11.70;96.10
2621;DHT22;1320;48.128;11.592;2023-12-29T05:47:43;11.70;96.10
2621;DHT22;1320;48.128;11.592;2023-12-29T05:50:09;11.70;96.10
2621;DHT22;1320;48.128;11.592;2023-12-29T05:52:35;11.70;96.00
2621;DHT22;1320;48.128;11.592;2023-12-29T05:55:00;11.70;96.10
2621;DHT22;1320;48.128;11.592;2023-12-29T05:57:26;11.70;96.20
2621;DHT22;1320;48.128;11.592;2023-12-29T05:59:52;11.70;96.00
2621;DHT22;1320;48.128;11.592;2023-12-29T06:02:17;11.70;96.10
2621;DHT22;1320;48.128;11.592;2023-12-29T06:04:43;11.70;96.00
2621;DHT22;1320;48.128;11.592;2023-12-29T06:07:09;11.70;96.00
2621;DHT22;1320;48.128;11.592;2023-12-29T06:09:34;11.70;95.90
2621;DHT22;1320;48.128;11.592;2023-12-29T06:12:00;11.70;96.00
2621;DHT22;1320;48.128;11.592;2023-12-29T06:14:26;11.70;95.90
2621;DHT22;1320;48.128;11.592;2023-12-29T06:16:52;11.70;95.70
2621;DHT22;1320;48.128;11.592;2023-12-29T06:19:18;11.70;95.80
2621;DHT22;1320;48.128;11.592;2023-12-29T06:21:44;11.70;95.80
2621;DHT22;1320;48.128;11.592;2023-12-29T06:24:10;11.70;95.80
2621;DHT22;1320;48.128;11.592;2023-12-29T06:26:36;11.80;95.90
2621;DHT22;1320;48.128;11.592;2023-12-29T06:29:07;11.80;95.80
2621;DHT22;1320;48.128;11.592;2023-12-29T06:31:33;11.80;95.70
2621;DHT22;1320;48.128;11.592;2023-12-29T06:33:59;11.80;95.60
2621;DHT22;1320;48.128;11.592;2023-12-29T06:36:26;11.80;95.60
2621;DHT22;1320;48.128;11.592;2023-12-29T06:38:51;11.80;95.50
2621;DHT22;1320;48.128;11.592;2023-12-29T06:41:19;11.80;95.50
2621;DHT22;1320;48.128;11.592;2023-12-29T06:43:44;11.80;95.60
2621;DHT22;1320;48.128;11.592;2023-12-29T06:46:11;11.80;95.40
2621;DHT22;1320;48.128;11.592;2023-12-29T06:48:39;11.70;95.50
2621;DHT22;1320;48.128;11.592;2023-12-29T06:51:05;11.70;95.50
2621;DHT22;1320;48.128;11.592;2023-12-29T06:53:31;11.70;95.60
2621;DHT22;1320;48.128;11.592;2023-12-29T06:55:56;11.60;95.70
2621;DHT22;1320;48.128;11.592;2023-12-29T06:58:22;11.70;95.70
2621;DHT22;1320;48.128;11.592;2023-12-29T07:00:48;11.70;95.70
2621;DHT22;1320;48.128;11.592;2023-12-29T07:03:14;11.60;95.90
2621;DHT22;1320;48.128;11.592;2023-12-29T07:05:40;11.70;95.90
2621;DHT22;1320;48.128;11.592;2023-12-29T07:08:06;11.60;96.10
2621;DHT22;1320;48.128;11.592;2023-12-29T07:10:32;11.50;96.70
2621;DHT22;1320;48.128;11.592;2023-12-29T07:12:57;11.40;97.10
2621;DHT22;1320;48.128;11.592;2023-12-29T07:15:23;11.40;97.50
2621;DHT22;1320;48.128;11.592;2023-12-29T07:17:49;11.40;97.80
2621;DHT22;1320;48.128;11.592;2023-12-29T07:20:15;11.40;98.10
2621;DHT22;1320;48.128;11.592;2023-12-29T07:22:41;11.30;98.20
2621;DHT22;1320;48.128;11.592;2023-12-29T07:25:08;11.30;98.30
2621;DHT22;1320;48.128;11.592;2023-12-29T07:27:33;11.30;98.50
2621;DHT22;1320;48.128;11.592;2023-12-29T07:29:59;11.30;98.60
2621;DHT22;1320;48.128;11.592;2023-12-29T07:32:25;11.30;98.80
2621;DHT22;1320;48.128;11.592;2023-12-29T07:34:50;11.30;99.10
2621;DHT22;1320;48.128;11.592;2023-12-29T07:37:16;11.40;99.30
2621;DHT22;1320;48.128;11.592;2023-12-29T07:39:42;11.30;99.60
2621;DHT22;1320;48.128;11.592;2023-12-29T07:42:07;11.30;99.90
2621;DHT22;1320;48.128;11.592;2023-12-29T07:44:33;11.30;99.90
2621;DHT22;1320;48.128;11.592;2023-12-29T07:46:59;11.30;99.90
2621;DHT22;1320;48.128;11.592;2023-12-29T07:49:25;11.20;99.90
2621;DHT22;1320;48.128;11.592;2023-12-29T07:51:51;11.20;99.90
2621;DHT22;1320;48.128;11.592;2023-12-29T07:54:16;11.20;99.90
2621;DHT22;1320;48.128;11.592;2023-12-29T07:56:42;11.30;99.90
2621;DHT22;1320;48.128;11.592;2023-12-29T07:59:08;11.30;99.90
2621;DHT22;1320;48.128;11.592;2023-12-29T08:01:33;11.30;99.90
2621;DHT22;1320;48.128;11.592;2023-12-29T08:03:59;11.30;99.90
2621;DHT22;1320;48.128;11.592;2023-12-29T08:06:25;11.40;99.90
2621;DHT22;1320;48.128;11.592;2023-12-29T08:08:51;11.40;99.90
2621;DHT22;1320;48.128;11.592;2023-12-29T08:11:17;11.50;99.90
2621;DHT22;1320;48.128;11.592;2023-12-29T08:13:44;11.50;99.90
2621;DHT22;1320;48.128;11.592;2023-12-29T08:16:10;11.50;99.90
2621;DHT22;1320;48.128;11.592;2023-12-29T08:18:36;11.50;99.90
2621;DHT22;1320;48.128;11.592;2023-12-29T08:21:02;11.50;99.90
2621;DHT22;1320;48.128;11.592;2023-12-29T08:23:28;11.60;99.90
2621;DHT22;1320;48.128;11.592;2023-12-29T08:25:53;11.60;99.90
2621;DHT22;1320;48.128;11.592;2023-12-29T08:28:21;11.60;99.90
2621;DHT22;1320;48.128;11.592;2023-12-29T08:30:46;11.70;99.90
2621;DHT22;1320;48.128;11.592;2023-12-29T08:33:12;11.70;99.90
2621;DHT22;1320;48.128;11.592;2023-12-29T08:35:42;11.70;99.90
2621;DHT22;1320;48.128;11.592;2023-12-29T08:38:08;11.80;99.90
2621;DHT22;1320;48.128;11.592;2023-12-29T08:40:33;11.80;99.90
2621;DHT22;1320;48.128;11.592;2023-12-29T08:42:59;11.90;99.90
2621;DHT22;1320;48.128;11.592;2023-12-29T08:45:27;11.90;99.90
2621;DHT22;1320;48.128;11.592;2023-12-29T08:47:52;11.90;99.90
2621;DHT22;1320;48.128;11.592;2023-12-29T08:50:18;11.80;99.90
2621;DHT22;1320;48.128;11.592;2023-12-29T08:52:44;11.90;99.90
2621;DHT22;1320;48.128;11.592;2023-12-29T08:55:09;11.90;99.90
2621;DHT22;1320;48.128;11.592;2023-12-29T08:57:35;11.90;99.90
2621;DHT22;1320;48.128;11.592;2023-12-29T09:00:01;12.00;99.90
2621;DHT22;1320;48.128;11.592;2023-12-29T09:02:27;12.00;99.90
2621;DHT22;1320;48.128;11.592;2023-12-29T09:04:52;12.00;99.90
2621;DHT22;1320;48.128;11.592;2023-12-29T09:07:18;11.90;99.90
2621;DHT22;1320;48.128;11.592;2023-12-29T09:09:43;11.90;99.90
2621;DHT22;1320;48.128;11.592;2023-12-29T09:12:09;11.90;99.90
2621;DHT22;1320;48.128;11.592;2023-12-29T09:14:35;11.90;99.90
2621;DHT22;1320;48.128;11.592;2023-12-29T09:17:01;12.00;99.90
2621;DHT22;1320;48.128;11.592;2023-12-29T09:19:26;12.00;99.90
2621;DHT22;1320;48.128;11.592;2023-12-29T09:21:53;12.10;99.90
2621;DHT22;1320;48.128;11.592;2023-12-29T09:24:18;12.10;99.90
2621;DHT22;1320;48.128;11.592;2023-12-29T09:26:44;12.20;99.90
2621;DHT22;1320;48.128;11.592;2023-12-29T09:29:10;12.30;99.90
2621;DHT22;1320;48.128;11.592;2023-12-29T09:31:35;12.30;99.90
2621;DHT22;1320;48.128;11.592;2023-12-29T09:34:01;12.40;99.90
2621;DHT22;1320;48.128;11.592;2023-12-29T09:36:27;12.40;99.90
2621;DHT22;1320;48.128;11.592;2023-12-29T09:38:53;12.50;99.90
2621;DHT22;1320;48.128;11.592;2023-12-29T09:41:20;12.60;99.90
2621;DHT22;1320;48.128;11.592;2023-12-29T09:43:48;12.60;99.90
2621;DHT22;1320;48.128;11.592;2023-12-29T09:46:17;12.70;99.90
2621;DHT22;1320;48.128;11.592;2023-12-29T09:48:46;12.70;99.90
2621;DHT22;1320;48.128;11.592;2023-12-29T09:51:13;12.70;99.90
2621;DHT22;1320;48.128;11.592;2023-12-29T09:53:40;12.70;99.90
2621;DHT22;1320;48.128;11.592;2023-12-29T09:56:08;12.80;99.90
2621;DHT22;1320;48.128;11.592;2023-12-29T09:58:35;12.80;99.90
2621;DHT22;1320;48.128;11.592;2023-12-29T10:01:04;12.80;99.90
2621;DHT22;1320;48.128;11.592;2023-12-29T10:03:32;12.80;99.90
2621;DHT22;1320;48.128;11.592;2023-12-29T10:06:00;12.90;99.90
2621;DHT22;1320;48.128;11.592;2023-12-29T10:08:29;12.90;99.90
2621;DHT22;1320;48.128;11.592;2023-12-29T10:10:58;12.90;99.90
2621;DHT22;1320;48.128;11.592;2023-12-29T10:13:25;12.90;99.90
2621;DHT22;1320;48.128;11.592;2023-12-29T10:16:08;13.00;99.90
2621;DHT22;1320;48.128;11.592;2023-12-29T10:19:06;12.90;99.90
2621;DHT22;1320;48.128;11.592;2023-12-29T10:21:44;12.90;99.90
2621;DHT22;1320;48.128;11.592;2023-12-29T10:24:19;12.80;99.90
2621;DHT22;1320;48.128;11.592;2023-12-29T10:26:45;12.80;99.90
2621;DHT22;1320;48.128;11.592;2023-12-29T10:29:14;12.80;99.90
2621;DHT22;1320;48.128;11.592;2023-12-29T10:31:39;12.80;99.90
2621;DHT22;1320;48.128;11.592;2023-12-29T10:34:22;12.70;99.90
2621;DHT22;1320;48.128;11.592;2023-12-29T10:37:01;12.70;99.90
2621;DHT22;1320;48.128;11.592;2023-12-29T10:39:37;12.80;99.90
2621;DHT22;1320;48.128;11.592;2023-12-29T10:42:07;12.80;99.90
2621;DHT22;1320;48.128;11.592;2023-12-29T10:44:34;12.80;99.90
2621;DHT22;1320;48.128;11.592;2023-12-29T10:47:13;12.80;99.90
2621;DHT22;1320;48.128;11.592;2023-12-29T10:49:40;12.80;99.90
2621;DHT22;1320;48.128;11.592;2023-12-29T10:52:12;12.70;99.90
2621;DHT22;1320;48.128;11.592;2023-12-29T10:54:40;12.80;99.90
2621;DHT22;1320;48.128;11.592;2023-12-29T10:57:05;12.80;99.90
2621;DHT22;1320;48.128;11.592;2023-12-29T10:59:32;12.80;99.90
2621;DHT22;1320;48.128;11.592;2023-12-29T11:02:01;12.90;99.90
2621;DHT22;1320;48.128;11.592;2023-12-29T11:04:29;12.90;99.90
2621;DHT22;1320;48.128;11.592;2023-12-29T11:06:55;12.90;99.90
2621;DHT22;1320;48.128;11.592;2023-12-29T11:09:31;13.00;99.90
2621;DHT22;1320;48.128;11.592;2023-12-29T11:12:03;12.90;99.90
2621;DHT22;1320;48.128;11.592;2023-12-29T11:14:32;12.90;99.90
2621;DHT22;1320;48.128;11.592;2023-12-29T11:16:58;12.90;99.90
2621;DHT22;1320;48.128;11.592;2023-12-29T11:19:26;12.90;99.90
2621;DHT22;1320;48.128;11.592;2023-12-29T11:21:54;12.90;99.90
2621;DHT22;1320;48.128;11.592;2023-12-29T11:24:21;12.90;99.90
2621;DHT22;1320;48.128;11.592;2023-12-29T11:26:49;13.00;99.90
2621;DHT22;1320;48.128;11.592;2023-12-29T11:29:15;13.10;99.90
2621;DHT22;1320;48.128;11.592;2023-12-29T11:31:42;13.10;99.90
2621;DHT22;1320;48.128;11.592;2023-12-29T11:34:23;13.00;99.90
2621;DHT22;1320;48.128;11.592;2023-12-29T11:36:55;13.00;99.90
2621;DHT22;1320;48.128;11.592;2023-12-29T11:39:37;13.10;99.90
2621;DHT22;1320;48.128;11.592;2023-12-29T11:42:27;13.10;99.90
2621;DHT22;1320;48.128;11.592;2023-12-29T11:44:56;13.20;99.90
2621;DHT22;1320;48.128;11.592;2023-12-29T11:47:35;13.20;99.90
2621;DHT22;1320;48.128;11.592;2023-12-29T11:50:02;13.20;99.90
2621;DHT22;1320;48.128;11.592;2023-12-29T11:52:35;13.20;99.90
2621;DHT22;1320;48.128;11.592;2023-12-29T11:55:11;13.20;99.90
2621;DHT22;1320;48.128;11.592;2023-12-29T11:57:37;13.20;99.90
2621;DHT22;1320;48.128;11.592;2023-12-29T12:00:06;13.20;99.90
2621;DHT22;1320;48.128;11.592;2023-12-29T12:02:32;13.30;99.90
2621;DHT22;1320;48.128;11.592;2023-12-29T12:04:58;13.30;99.90
2621;DHT22;1320;48.128;11.592;2023-12-29T12:09:49;13.30;99.90
2621;DHT22;1320;48.128;11.592;2023-12-29T12:12:38;13.40;99.90
2621;DHT22;1320;48.128;11.592;2023-12-29T12:15:04;13.30;99.90
2621;DHT22;1320;48.128;11.592;2023-12-29T12:17:50;13.30;99.90
2621;DHT22;1320;48.128;11.592;2023-12-29T12:20:16;13.40;99.90
2621;DHT22;1320;48.128;11.592;2023-12-29T12:22:42;13.50;99.90
2621;DHT22;1320;48.128;11.592;2023-12-29T12:25:11;13.70;99.90
2621;DHT22;1320;48.128;11.592;2023-12-29T12:27:38;13.70;99.90
2621;DHT22;1320;48.128;11.592;2023-12-29T12:30:05;13.80;99.90
2621;DHT22;1320;48.128;11.592;2023-12-29T12:32:31;13.90;99.90
2621;DHT22;1320;48.128;11.592;2023-12-29T12:34:57;13.80;99.90
2621;DHT22;1320;48.128;11.592;2023-12-29T12:37:25;13.80;99.90
2621;DHT22;1320;48.128;11.592;2023-12-29T12:39:51;13.80;99.90
2621;DHT22;1320;48.128;11.592;2023-12-29T12:42:19;13.80;99.90
2621;DHT22;1320;48.128;11.592;2023-12-29T12:45:11;13.80;99.90
2621;DHT22;1320;48.128;11.592;2023-12-29T12:47:52;13.70;99.90
2621;DHT22;1320;48.128;11.592;2023-12-29T12:50:19;13.70;99.90
2621;DHT22;1320;48.128;11.592;2023-12-29T12:52:45;13.70;99.90
2621;DHT22;1320;48.128;11.592;2023-12-29T12:55:11;13.60;99.90
2621;DHT22;1320;48.128;11.592;2023-12-29T12:57:38;13.60;99.90
2621;DHT22;1320;48.128;11.592;2023-12-29T13:00:05;13.60;99.90
2621;DHT22;1320;48.128;11.592;2023-12-29T13:02:32;13.60;99.90
2621;DHT22;1320;48.128;11.592;2023-12-29T13:04:58;13.70;99.90
2621;DHT22;1320;48.128;11.592;2023-12-29T13:07:24;13.70;99.90
2621;DHT22;1320;48.128;11.592;2023-12-29T13:09:51;13.70;99.90
2621;DHT22;1320;48.128;11.592;2023-12-29T13:12:18;13.70;99.90
2621;DHT22;1320;48.128;11.592;2023-12-29T13:14:44;13.70;99.90
2621;DHT22;1320;48.128;11.592;2023-12-29T13:17:15;13.70;99.90
2621;DHT22;1320;48.128;11.592;2023-12-29T13:19:43;13.70;99.90
2621;DHT22;1320;48.128;11.592;2023-12-29T13:22:11;13.70;99.90
2621;DHT22;1320;48.128;11.592;2023-12-29T13:24:44;13.60;99.90
2621;DHT22;1320;48.128;11.592;2023-12-29T13:27:10;13.50;99.90
2621;DHT22;1320;48.128;11.592;2023-12-29T13:29:41;13.40;99.90
2621;DHT22;1320;48.128;11.592;2023-12-29T13:32:13;13.40;99.90
2621;DHT22;1320;48.128;11.592;2023-12-29T13:37:32;13.40;99.90
2621;DHT22;1320;48.128;11.592;2023-12-29T13:40:09;13.40;99.90
2621;DHT22;1320;48.128;11.592;2023-12-29T13:42:38;13.30;99.90
2621;DHT22;1320;48.128;11.592;2023-12-29T13:45:05;13.30;99.90
2621;DHT22;1320;48.128;11.592;2023-12-29T13:47:36;13.30;99.90
2621;DHT22;1320;48.128;11.592;2023-12-29T13:50:03;13.30;99.90
2621;DHT22;1320;48.128;11.592;2023-12-29T13:52:29;13.20;99.90
2621;DHT22;1320;48.128;11.592;2023-12-29T13:54:54;13.20;99.90
2621;DHT22;1320;48.128;11.592;2023-12-29T13:57:30;13.20;99.90
2621;DHT22;1320;48.128;11.592;2023-12-29T13:59:56;13.20;99.90
2621;DHT22;1320;48.128;11.592;2023-12-29T14:02:31;13.20;99.90
2621;DHT22;1320;48.128;11.592;2023-12-29T14:07:53;13.20;99.90
2621;DHT22;1320;48.128;11.592;2023-12-29T14:10:20;13.20;99.90
2621;DHT22;1320;48.128;11.592;2023-12-29T14:12:47;13.20;99.90
2621;DHT22;1320;48.128;11.592;2023-12-29T14:15:12;13.30;99.90
2621;DHT22;1320;48.128;11.592;2023-12-29T14:17:39;13.20;99.90
2621;DHT22;1320;48.128;11.592;2023-12-29T14:20:06;13.20;99.90
2621;DHT22;1320;48.128;11.592;2023-12-29T14:22:33;13.10;99.90
2621;DHT22;1320;48.128;11.592;2023-12-29T14:25:04;13.20;99.90
2621;DHT22;1320;48.128;11.592;2023-12-29T14:27:30;13.10;99.90
2621;DHT22;1320;48.128;11.592;2023-12-29T14:29:56;13.00;99.90
2621;DHT22;1320;48.128;11.592;2023-12-29T14:32:22;12.90;99.90
2621;DHT22;1320;48.128;11.592;2023-12-29T14:34:49;12.80;99.90
2621;DHT22;1320;48.128;11.592;2023-12-29T14:37:20;12.90;99.90
2621;DHT22;1320;48.128;11.592;2023-12-29T14:39:49;12.90;99.90
2621;DHT22;1320;48.128;11.592;2023-12-29T14:42:15;13.00;99.90
2621;DHT22;1320;48.128;11.592;2023-12-29T14:44:41;13.00;99.90
2621;DHT22;1320;48.128;11.592;2023-12-29T14:47:07;13.00;99.90
2621;DHT22;1320;48.128;11.592;2023-12-29T14:49:33;12.90;99.90
2621;DHT22;1320;48.128;11.592;2023-12-29T14:51:58;12.90;99.90
2621;DHT22;1320;48.128;11.592;2023-12-29T14:54:24;12.90;99.90
2621;DHT22;1320;48.128;11.592;2023-12-29T14:56:50;12.90;99.90
2621;DHT22;1320;48.128;11.592;2023-12-29T14:59:16;12.80;99.90
2621;DHT22;1320;48.128;11.592;2023-12-29T15:01:41;12.80;99.90
2621;DHT22;1320;48.128;11.592;2023-12-29T15:04:07;12.80;99.90
2621;DHT22;1320;48.128;11.592;2023-12-29T15:06:36;12.80;99.90
2621;DHT22;1320;48.128;11.592;2023-12-29T15:09:02;12.80;99.90
2621;DHT22;1320;48.128;11.592;2023-12-29T15:11:28;12.80;99.90
2621;DHT22;1320;48.128;11.592;2023-12-29T15:13:54;12.80;99.90
2621;DHT22;1320;48.128;11.592;2023-12-29T15:16:19;12.70;99.90
2621;DHT22;1320;48.128;11.592;2023-12-29T15:18:45;12.70;99.90
2621;DHT22;1320;48.128;11.592;2023-12-29T15:21:11;12.70;99.90
2621;DHT22;1320;48.128;11.592;2023-12-29T15:23:36;12.60;99.90
2621;DHT22;1320;48.128;11.592;2023-12-29T15:26:02;12.60;99.90
2621;DHT22;1320;48.128;11.592;2023-12-29T15:28:28;12.60;99.90
2621;DHT22;1320;48.128;11.592;2023-12-29T15:30:53;12.60;99.90
2621;DHT22;1320;48.128;11.592;2023-12-29T15:33:19;12.60;99.90
2621;DHT22;1320;48.128;11.592;2023-12-29T15:35:45;12.60;99.90
2621;DHT22;1320;48.128;11.592;2023-12-29T15:38:11;12.70;99.90
2621;DHT22;1320;48.128;11.592;2023-12-29T15:40:43;12.70;99.90
2621;DHT22;1320;48.128;11.592;2023-12-29T15:43:08;12.70;99.90
2621;DHT22;1320;48.128;11.592;2023-12-29T15:45:34;12.70;99.90
2621;DHT22;1320;48.128;11.592;2023-12-29T15:48:00;12.60;99.90
2621;DHT22;1320;48.128;11.592;2023-12-29T15:50:26;12.60;99.90
2621;DHT22;1320;48.128;11.592;2023-12-29T15:52:52;12.60;99.90
2621;DHT22;1320;48.128;11.592;2023-12-29T15:55:18;12.60;99.90
2621;DHT22;1320;48.128;11.592;2023-12-29T15:57:43;12.60;99.90